createdAt,value
2022-11-20T00:00:57.076Z,11.40
2022-11-20T00:01:58.969Z,9.77
2022-11-20T00:03:00.702Z,11.07
2022-11-20T00:04:02.602Z,12.87
2022-11-20T00:05:04.634Z,11.80
2022-11-20T00:06:09.916Z,11.43
2022-11-20T00:07:11.877Z,10.80
2022-11-20T00:08:14.134Z,11.37
2022-11-20T00:09:15.885Z,10.47
2022-11-20T00:10:17.710Z,11.70
2022-11-20T00:11:21.611Z,11.37
2022-11-20T00:12:23.395Z,11.37
2022-11-20T00:13:25.265Z,13.00
2022-11-20T00:14:27.060Z,9.70
2022-11-20T00:15:28.877Z,10.13
2022-11-20T00:16:33.836Z,14.73
2022-11-20T00:17:35.731Z,12.27
2022-11-20T00:18:37.908Z,10.77
2022-11-20T00:19:39.666Z,13.23
2022-11-20T00:20:41.444Z,12.80
2022-11-20T00:21:43.184Z,12.40
2022-11-20T00:22:44.965Z,12.70
2022-11-20T00:23:47.266Z,10.47
2022-11-20T00:24:48.991Z,14.40
2022-11-20T00:25:50.847Z,11.77
2022-11-20T00:26:52.658Z,12.07
2022-11-20T00:27:54.470Z,15.80
2022-11-20T00:29:01.862Z,14.27
2022-11-20T00:30:04.985Z,13.83
2022-11-20T00:31:13.327Z,11.27
2022-11-20T00:32:15.103Z,13.10
2022-11-20T00:33:16.911Z,13.40
2022-11-20T00:34:18.866Z,13.20
2022-11-20T00:35:20.537Z,13.53
2022-11-20T00:36:26.043Z,10.20
2022-11-20T00:37:27.744Z,10.73
2022-11-20T00:38:30.066Z,13.37
2022-11-20T00:39:31.885Z,11.73
2022-11-20T00:40:33.658Z,10.33
2022-11-20T00:41:35.358Z,11.77
2022-11-20T00:42:37.139Z,11.77
2022-11-20T00:43:40.087Z,10.37
2022-11-20T00:44:41.849Z,12.53
2022-11-20T00:45:44.085Z,10.70
2022-11-20T00:46:46.010Z,10.20
2022-11-20T00:47:47.798Z,10.57
2022-11-20T00:48:52.770Z,11.60
2022-11-20T00:49:54.512Z,10.63
2022-11-20T00:50:57.146Z,8.63
2022-11-20T00:51:58.863Z,13.03
2022-11-20T00:53:00.593Z,9.47
2022-11-20T00:54:03.076Z,9.10
2022-11-20T00:55:05.306Z,8.97
2022-11-20T00:56:11.074Z,11.57
2022-11-20T00:57:12.830Z,9.87
2022-11-20T00:58:14.627Z,10.93
2022-11-20T00:59:16.443Z,10.47
2022-11-20T01:00:18.376Z,10.77
2022-11-20T01:01:25.939Z,10.27
2022-11-20T01:02:27.760Z,12.20
2022-11-20T01:03:32.739Z,8.40
2022-11-20T01:04:34.510Z,8.40
2022-11-20T01:05:36.971Z,11.00
2022-11-20T01:06:40.392Z,10.63
2022-11-20T01:07:42.135Z,9.97
2022-11-20T01:08:44.973Z,8.73
2022-11-20T01:09:46.706Z,9.10
2022-11-20T01:10:48.414Z,8.80
2022-11-20T01:11:50.309Z,9.80
2022-11-20T01:13:12.049Z,10.03
2022-11-20T01:14:20.019Z,8.33
2022-11-20T01:15:21.792Z,9.00
2022-11-20T01:16:33.651Z,8.50
2022-11-20T01:17:35.531Z,6.03
2022-11-20T01:18:39.703Z,8.00
2022-11-20T01:19:41.488Z,7.93
2022-11-20T01:20:43.269Z,8.27
2022-11-20T01:21:46.923Z,7.93
2022-11-20T01:22:48.671Z,8.60
2022-11-20T01:23:51.362Z,8.30
2022-11-20T01:24:53.121Z,8.87
2022-11-20T01:25:54.868Z,10.60
2022-11-20T01:26:56.746Z,11.63
2022-11-20T01:27:58.497Z,8.30
2022-11-20T01:29:00.989Z,7.63
2022-11-20T01:30:02.805Z,8.07
2022-11-20T01:31:16.323Z,7.30
2022-11-20T01:32:18.110Z,6.10
2022-11-20T01:33:19.854Z,5.87
2022-11-20T01:34:23.270Z,6.87
2022-11-20T01:35:25.237Z,11.17
2022-11-20T01:36:29.360Z,6.90
2022-11-20T01:37:31.110Z,6.67
2022-11-20T01:38:32.965Z,6.10
2022-11-20T01:39:34.759Z,6.37
2022-11-20T01:40:36.516Z,7.13
2022-11-20T01:41:56.827Z,6.13
2022-11-20T01:43:24.290Z,5.50
2022-11-20T01:45:01.967Z,6.83
2022-11-20T01:46:17.287Z,7.60
2022-11-20T01:47:43.059Z,5.47
2022-11-20T01:49:03.541Z,6.70
2022-11-20T01:50:15.669Z,6.33
2022-11-20T01:51:20.492Z,8.90
2022-11-20T01:52:28.957Z,6.63
2022-11-20T01:53:35.324Z,5.47
2022-11-20T01:54:55.866Z,7.23
2022-11-20T01:56:02.261Z,5.90
2022-11-20T01:57:05.943Z,5.13
2022-11-20T01:58:08.384Z,5.97
2022-11-20T01:59:12.200Z,6.33
2022-11-20T02:00:16.482Z,6.33
2022-11-20T02:01:18.758Z,6.80
2022-11-20T02:02:21.915Z,6.33
2022-11-20T02:03:24.574Z,5.47
2022-11-20T02:04:26.943Z,5.60
2022-11-20T02:05:33.443Z,6.93
2022-11-20T02:06:45.335Z,4.63
2022-11-20T02:07:48.435Z,4.93
2022-11-20T02:08:50.165Z,7.17
2022-11-20T02:09:57.360Z,5.90
2022-11-20T02:11:00.408Z,4.53
2022-11-20T02:12:02.419Z,6.47
2022-11-20T02:13:23.494Z,4.33
2022-11-20T02:14:26.243Z,6.30
2022-11-20T02:15:30.414Z,7.17
2022-11-20T02:16:36.626Z,6.57
2022-11-20T02:17:39.218Z,4.90
2022-11-20T02:18:41.837Z,5.50
2022-11-20T02:19:43.647Z,6.87
2022-11-20T02:20:49.248Z,4.40
2022-11-20T02:22:14.146Z,5.73
2022-11-20T02:23:40.909Z,6.87
2022-11-20T02:24:44.329Z,4.50
2022-11-20T02:25:48.330Z,4.40
2022-11-20T02:27:05.865Z,5.17
2022-11-20T02:28:07.739Z,5.20
2022-11-20T02:29:09.678Z,4.37
2022-11-20T02:30:12.209Z,5.07
2022-11-20T02:31:14.097Z,5.50
2022-11-20T02:32:27.615Z,5.87
2022-11-20T02:33:29.469Z,7.67
2022-11-20T02:34:31.264Z,4.97
2022-11-20T02:35:33.079Z,4.33
2022-11-20T02:36:36.920Z,6.90
2022-11-20T02:37:41.406Z,6.37
2022-11-20T02:38:44.692Z,5.20
2022-11-20T02:39:52.225Z,4.40
2022-11-20T02:40:55.758Z,6.10
2022-11-20T02:41:58.247Z,4.57
2022-11-20T02:43:00.001Z,5.17
2022-11-20T02:44:02.138Z,4.40
2022-11-20T02:45:05.385Z,5.67
2022-11-20T02:46:08.975Z,6.60
2022-11-20T02:47:10.839Z,5.47
2022-11-20T02:48:12.696Z,4.17
2022-11-20T02:49:14.566Z,4.73
2022-11-20T02:50:16.393Z,4.33
2022-11-20T02:51:18.181Z,4.10
2022-11-20T02:52:19.945Z,7.70
2022-11-20T02:53:21.681Z,4.63
2022-11-20T02:54:24.389Z,5.07
2022-11-20T02:55:26.124Z,6.17
2022-11-20T02:56:28.311Z,6.37
2022-11-20T02:57:30.112Z,5.23
2022-11-20T02:58:31.893Z,5.23
2022-11-20T02:59:33.675Z,10.47
2022-11-20T03:00:36.434Z,6.23
2022-11-20T03:01:38.248Z,5.43
2022-11-20T03:02:39.971Z,6.10
2022-11-20T03:03:41.722Z,5.50
2022-11-20T03:04:43.591Z,5.03
2022-11-20T03:05:45.306Z,4.37
2022-11-20T03:06:47.104Z,11.37
2022-11-20T03:07:48.824Z,8.07
2022-11-20T03:08:50.586Z,5.37
2022-11-20T03:09:52.424Z,8.87
2022-11-20T03:10:54.198Z,6.00
2022-11-20T03:11:56.492Z,6.27
2022-11-20T03:12:58.369Z,4.37
2022-11-20T03:14:04.282Z,7.17
2022-11-20T03:15:06.464Z,5.53
2022-11-20T03:16:11.099Z,7.33
2022-11-20T03:17:12.875Z,6.87
2022-11-20T03:18:15.725Z,8.00
2022-11-20T03:19:17.685Z,5.17
2022-11-20T03:20:19.492Z,5.40
2022-11-20T03:21:21.271Z,4.87
2022-11-20T03:22:23.053Z,6.67
2022-11-20T03:23:24.850Z,5.37
2022-11-20T03:24:26.718Z,6.27
2022-11-20T03:25:28.680Z,4.80
2022-11-20T03:26:30.446Z,5.53
2022-11-20T03:27:35.818Z,6.47
2022-11-20T03:28:37.846Z,6.37
2022-11-20T03:29:39.678Z,5.40
2022-11-20T03:30:41.889Z,4.80
2022-11-20T03:31:43.835Z,6.27
2022-11-20T03:32:45.852Z,5.33
2022-11-20T03:33:48.452Z,5.60
2022-11-20T03:34:50.169Z,5.50
2022-11-20T03:35:51.872Z,4.37
2022-11-20T03:36:53.653Z,5.17
2022-11-20T03:37:55.395Z,5.33
2022-11-20T03:38:57.935Z,5.07
2022-11-20T03:39:59.696Z,4.80
2022-11-20T03:41:21.553Z,6.87
2022-11-20T03:42:41.772Z,6.80
2022-11-20T03:43:47.538Z,5.77
2022-11-20T03:44:49.255Z,5.27
2022-11-20T03:45:50.945Z,5.47
2022-11-20T03:46:52.711Z,5.83
2022-11-20T03:47:54.534Z,10.47
2022-11-20T03:48:57.113Z,11.03
2022-11-20T03:49:58.886Z,5.67
2022-11-20T03:51:17.716Z,5.87
2022-11-20T03:52:19.468Z,7.30
2022-11-20T03:53:21.651Z,5.13
2022-11-20T03:54:23.549Z,7.90
2022-11-20T03:55:25.247Z,6.90
2022-11-20T03:56:32.120Z,6.57
2022-11-20T03:57:33.905Z,7.07
2022-11-20T03:58:43.506Z,5.63
2022-11-20T03:59:45.283Z,5.97
2022-11-20T04:00:47.166Z,6.63
2022-11-20T04:01:49.722Z,6.17
2022-11-20T04:02:51.521Z,7.53
2022-11-20T04:03:54.994Z,5.00
2022-11-20T04:04:56.731Z,6.37
2022-11-20T04:06:09.993Z,6.00
2022-11-20T04:07:11.846Z,4.63
2022-11-20T04:08:13.631Z,5.27
2022-11-20T04:09:16.766Z,5.17
2022-11-20T04:10:18.524Z,5.40
2022-11-20T04:11:26.123Z,5.90
2022-11-20T04:12:28.004Z,6.23
2022-11-20T04:13:29.696Z,7.03
2022-11-20T04:14:31.561Z,5.97
2022-11-20T04:15:37.166Z,5.93
2022-11-20T04:16:40.343Z,6.80
2022-11-20T04:17:42.209Z,5.33
2022-11-20T04:18:44.366Z,7.13
2022-11-20T04:19:46.215Z,7.47
2022-11-20T04:20:47.957Z,5.00
2022-11-20T04:21:49.810Z,6.47
2022-11-20T04:22:54.928Z,7.87
2022-11-20T04:23:56.975Z,7.40
2022-11-20T04:24:58.733Z,6.47
2022-11-20T04:26:05.851Z,5.73
2022-11-20T04:27:07.630Z,6.90
2022-11-20T04:28:09.442Z,6.43
2022-11-20T04:29:13.906Z,7.17
2022-11-20T04:30:15.842Z,5.87
2022-11-20T04:31:20.415Z,5.70
2022-11-20T04:32:22.161Z,10.13
2022-11-20T04:33:23.864Z,6.90
2022-11-20T04:34:25.683Z,6.43
2022-11-20T04:35:27.414Z,6.80
2022-11-20T04:36:30.056Z,7.40
2022-11-20T04:37:31.757Z,6.03
2022-11-20T04:38:34.213Z,5.50
2022-11-20T04:39:36.006Z,5.20
2022-11-20T04:40:37.731Z,6.33
2022-11-20T04:41:39.863Z,6.00
2022-11-20T04:42:41.605Z,7.33
2022-11-20T04:43:46.968Z,7.73
2022-11-20T04:44:48.778Z,5.27
2022-11-20T04:45:54.963Z,5.50
2022-11-20T04:46:56.746Z,4.83
2022-11-20T04:47:58.548Z,5.07
2022-11-20T04:49:00.766Z,7.60
2022-11-20T04:50:02.618Z,5.03
2022-11-20T04:51:05.325Z,6.17
2022-11-20T04:52:07.519Z,6.60
2022-11-20T04:53:09.338Z,7.83
2022-11-20T04:54:12.525Z,6.77
2022-11-20T04:55:14.486Z,6.37
2022-11-20T04:56:16.757Z,4.97
2022-11-20T04:57:18.481Z,6.13
2022-11-20T04:58:20.261Z,5.60
2022-11-20T04:59:22.435Z,6.77
2022-11-20T05:00:24.924Z,6.47
2022-11-20T05:01:26.884Z,6.10
2022-11-20T05:02:28.719Z,8.77
2022-11-20T05:03:30.559Z,6.67
2022-11-20T05:04:32.333Z,5.23
2022-11-20T05:05:37.351Z,5.23
2022-11-20T05:06:39.380Z,7.90
2022-11-20T05:07:41.166Z,6.03
2022-11-20T05:08:43.277Z,8.43
2022-11-20T05:09:45.370Z,7.37
2022-11-20T05:10:47.107Z,8.37
2022-11-20T05:11:51.479Z,6.10
2022-11-20T05:12:53.705Z,5.33
2022-11-20T05:13:56.282Z,5.77
2022-11-20T05:14:58.191Z,6.00
2022-11-20T05:16:18.579Z,5.17
2022-11-20T05:17:20.744Z,5.90
2022-11-20T05:18:22.490Z,6.77
2022-11-20T05:19:24.255Z,8.20
2022-11-20T05:20:26.097Z,6.60
2022-11-20T05:21:28.545Z,5.87
2022-11-20T05:22:30.309Z,7.20
2022-11-20T05:23:33.604Z,6.40
2022-11-20T05:24:35.725Z,7.43
2022-11-20T05:25:37.615Z,9.70
2022-11-20T05:26:39.497Z,6.57
2022-11-20T05:27:41.269Z,7.57
2022-11-20T05:28:43.066Z,6.43
2022-11-20T05:29:44.801Z,6.93
2022-11-20T05:30:46.535Z,6.77
2022-11-20T05:31:48.317Z,7.37
2022-11-20T05:32:50.040Z,6.93
2022-11-20T05:33:52.154Z,8.43
2022-11-20T05:34:54.082Z,7.50
2022-11-20T05:35:59.488Z,11.80
2022-11-20T05:37:01.567Z,6.80
2022-11-20T05:38:03.477Z,6.70
2022-11-20T05:39:05.272Z,7.10
2022-11-20T05:40:07.865Z,6.87
2022-11-20T05:41:12.523Z,6.57
2022-11-20T05:42:32.385Z,6.53
2022-11-20T05:43:39.059Z,7.70
2022-11-20T05:44:41.012Z,7.63
2022-11-20T05:45:42.812Z,8.17
2022-11-20T05:46:44.701Z,6.67
2022-11-20T05:47:46.485Z,9.63
2022-11-20T05:48:48.361Z,6.27
2022-11-20T05:49:50.137Z,5.97
2022-11-20T05:50:51.902Z,8.43
2022-11-20T05:51:53.927Z,6.40
2022-11-20T05:52:56.064Z,8.17
2022-11-20T05:53:59.485Z,8.37
2022-11-20T05:55:01.345Z,7.20
2022-11-20T05:56:09.170Z,5.33
2022-11-20T05:57:10.989Z,6.10
2022-11-20T05:58:12.790Z,7.03
2022-11-20T05:59:14.589Z,10.47
2022-11-20T06:00:16.815Z,6.70
2022-11-20T06:01:23.996Z,5.83
2022-11-20T06:02:26.369Z,6.70
2022-11-20T06:03:28.147Z,7.37
2022-11-20T06:04:29.989Z,7.73
2022-11-20T06:05:31.721Z,5.10
2022-11-20T06:06:33.716Z,6.87
2022-11-20T06:07:35.611Z,6.73
2022-11-20T06:08:37.476Z,6.60
2022-11-20T06:09:39.268Z,5.20
2022-11-20T06:10:41.111Z,5.67
2022-11-20T06:11:43.383Z,5.03
2022-11-20T06:12:45.266Z,5.83
2022-11-20T06:13:47.986Z,6.63
2022-11-20T06:14:49.802Z,4.80
2022-11-20T06:15:52.815Z,6.80
2022-11-20T06:16:54.746Z,6.80
2022-11-20T06:17:56.879Z,5.77
2022-11-20T06:18:58.606Z,4.87
2022-11-20T06:20:00.417Z,5.30
2022-11-20T06:21:07.585Z,5.20
2022-11-20T06:22:09.399Z,4.93
2022-11-20T06:23:11.167Z,6.53
2022-11-20T06:24:13.010Z,5.77
2022-11-20T06:25:15.147Z,6.37
2022-11-20T06:26:19.428Z,4.93
2022-11-20T06:27:21.172Z,5.03
2022-11-20T06:28:23.102Z,5.87
2022-11-20T06:29:27.687Z,6.57
2022-11-20T06:30:31.799Z,4.03
2022-11-20T06:31:38.761Z,5.73
2022-11-20T06:32:40.556Z,4.67
2022-11-20T06:33:43.475Z,5.53
2022-11-20T06:34:45.221Z,4.77
2022-11-20T06:35:47.036Z,5.17
2022-11-20T06:36:48.834Z,5.97
2022-11-20T06:37:50.635Z,5.13
2022-11-20T06:38:52.557Z,6.63
2022-11-20T06:39:54.285Z,6.20
2022-11-20T06:40:56.408Z,6.33
2022-11-20T06:41:59.240Z,5.17
2022-11-20T06:43:01.302Z,5.57
2022-11-20T06:44:06.375Z,8.50
2022-11-20T06:45:09.090Z,4.70
2022-11-20T06:46:12.608Z,4.53
2022-11-20T06:47:14.329Z,4.57
2022-11-20T06:48:16.078Z,4.30
2022-11-20T06:49:18.442Z,3.90
2022-11-20T06:50:20.235Z,5.10
2022-11-20T06:51:22.399Z,4.67
2022-11-20T06:52:24.414Z,6.47
2022-11-20T06:53:26.446Z,3.77
2022-11-20T06:54:28.378Z,5.50
2022-11-20T06:55:30.889Z,4.43
2022-11-20T06:56:32.651Z,5.93
2022-11-20T06:57:34.531Z,3.67
2022-11-20T06:58:37.149Z,3.70
2022-11-20T06:59:38.882Z,3.33
2022-11-20T07:00:41.023Z,5.50
2022-11-20T07:01:43.288Z,4.60
2022-11-20T07:02:45.022Z,4.20
2022-11-20T07:03:54.011Z,3.63
2022-11-20T07:04:56.373Z,4.17
2022-11-20T07:05:59.823Z,3.40
2022-11-20T07:07:01.909Z,3.97
2022-11-20T07:08:04.308Z,4.60
2022-11-20T07:09:11.398Z,4.57
2022-11-20T07:10:14.546Z,5.07
2022-11-20T07:11:16.409Z,4.43
2022-11-20T07:12:18.259Z,4.20
2022-11-20T07:13:20.000Z,6.70
2022-11-20T07:14:21.744Z,3.97
2022-11-20T07:15:25.051Z,4.77
2022-11-20T07:16:26.978Z,3.40
2022-11-20T07:17:28.841Z,5.70
2022-11-20T07:18:31.292Z,3.40
2022-11-20T07:19:33.069Z,4.07
2022-11-20T07:20:35.010Z,4.17
2022-11-20T07:21:37.060Z,4.93
2022-11-20T07:22:38.956Z,4.90
2022-11-20T07:23:40.716Z,4.37
2022-11-20T07:24:45.954Z,5.27
2022-11-20T07:25:48.070Z,4.20
2022-11-20T07:26:52.532Z,6.17
2022-11-20T07:27:57.611Z,3.67
2022-11-20T07:28:59.443Z,4.20
2022-11-20T07:30:01.612Z,4.93
2022-11-20T07:31:04.158Z,4.63
2022-11-20T07:32:05.934Z,3.87
2022-11-20T07:33:07.732Z,4.00
2022-11-20T07:34:09.912Z,5.33
2022-11-20T07:35:11.772Z,4.60
2022-11-20T07:36:13.770Z,3.97
2022-11-20T07:37:16.108Z,3.80
2022-11-20T07:38:17.926Z,6.20
2022-11-20T07:39:20.125Z,5.03
2022-11-20T07:40:22.264Z,4.17
2022-11-20T07:41:24.168Z,10.63
2022-11-20T07:42:26.010Z,10.23
2022-11-20T07:43:28.177Z,5.10
2022-11-20T07:44:30.077Z,4.83
2022-11-20T07:45:31.915Z,5.73
2022-11-20T07:46:33.761Z,4.47
2022-11-20T07:47:38.353Z,3.80
2022-11-20T07:48:40.653Z,5.10
2022-11-20T07:49:42.422Z,5.13
2022-11-20T07:50:44.158Z,4.07
2022-11-20T07:51:47.966Z,5.80
2022-11-20T07:52:53.671Z,4.13
2022-11-20T07:53:55.456Z,4.10
2022-11-20T07:54:57.273Z,2.80
2022-11-20T07:56:02.856Z,3.73
2022-11-20T07:57:04.674Z,4.97
2022-11-20T07:58:06.751Z,4.27
2022-11-20T07:59:08.549Z,3.87
2022-11-20T08:00:12.644Z,3.43
2022-11-20T08:01:14.718Z,4.30
2022-11-20T08:02:16.562Z,3.20
2022-11-20T08:03:24.333Z,3.80
2022-11-20T08:04:26.557Z,3.30
2022-11-20T08:05:28.585Z,3.83
2022-11-20T08:06:30.521Z,3.87
2022-11-20T08:07:43.080Z,3.27
2022-11-20T08:08:45.228Z,4.07
2022-11-20T08:09:47.006Z,3.13
2022-11-20T08:10:48.748Z,3.37
2022-11-20T08:12:08.946Z,6.10
2022-11-20T08:13:29.329Z,3.93
2022-11-20T08:14:31.218Z,4.40
2022-11-20T08:15:33.353Z,3.67
2022-11-20T08:16:35.139Z,4.53
2022-11-20T08:17:37.032Z,3.00
2022-11-20T08:18:38.879Z,2.80
2022-11-20T08:19:40.608Z,4.05
2022-11-20T08:20:42.479Z,3.03
2022-11-20T08:21:45.068Z,3.07
2022-11-20T08:22:46.908Z,3.20
2022-11-20T08:23:48.715Z,4.63
2022-11-20T08:24:50.573Z,3.30
2022-11-20T08:25:52.504Z,3.10
2022-11-20T08:26:54.603Z,3.83
2022-11-20T08:28:00.422Z,3.17
2022-11-20T08:29:03.717Z,3.17
2022-11-20T08:30:06.096Z,4.00
2022-11-20T08:31:07.996Z,4.10
2022-11-20T08:32:09.913Z,3.60
2022-11-20T08:33:11.697Z,2.77
2022-11-20T08:34:18.647Z,2.70
2022-11-20T08:35:23.862Z,4.93
2022-11-20T08:36:26.264Z,3.63
2022-11-20T08:37:28.066Z,2.93
2022-11-20T08:38:30.810Z,3.63
2022-11-20T08:39:32.624Z,5.67
2022-11-20T08:40:34.748Z,4.17
2022-11-20T08:41:37.783Z,2.87
2022-11-20T08:42:50.585Z,2.67
2022-11-20T08:44:07.799Z,2.57
2022-11-20T08:45:09.783Z,2.57
2022-11-20T08:46:11.837Z,2.47
2022-11-20T08:47:13.850Z,2.83
2022-11-20T08:48:16.452Z,2.73
2022-11-20T08:49:19.028Z,3.27
2022-11-20T08:50:21.007Z,3.20
2022-11-20T08:51:22.751Z,3.13
2022-11-20T08:52:24.782Z,2.57
2022-11-20T08:53:27.668Z,3.53
2022-11-20T08:54:29.804Z,3.10
2022-11-20T08:55:31.528Z,2.40
2022-11-20T08:56:33.769Z,3.33
2022-11-20T08:57:36.913Z,3.47
2022-11-20T08:59:01.771Z,4.03
2022-11-20T09:00:09.067Z,2.47
2022-11-20T09:01:12.118Z,2.00
2022-11-20T09:02:14.192Z,3.67
2022-11-20T09:03:16.067Z,4.70
2022-11-20T09:04:17.886Z,2.13
2022-11-20T09:05:19.609Z,2.57
2022-11-20T09:06:21.419Z,2.63
2022-11-20T09:07:23.270Z,2.80
2022-11-20T09:08:25.122Z,2.17
2022-11-20T09:09:26.986Z,2.97
2022-11-20T09:10:29.159Z,2.37
2022-11-20T09:11:31.083Z,2.00
2022-11-20T09:12:32.841Z,1.67
2022-11-20T09:13:37.277Z,2.43
2022-11-20T09:14:39.089Z,2.57
2022-11-20T09:15:40.906Z,1.63
2022-11-20T09:16:45.731Z,1.57
2022-11-20T09:17:53.750Z,2.27
2022-11-20T09:19:13.475Z,1.60
2022-11-20T09:20:17.356Z,2.00
2022-11-20T09:21:19.304Z,2.30
2022-11-20T09:22:21.151Z,2.03
2022-11-20T09:23:22.937Z,2.30
2022-11-20T09:24:24.901Z,4.30
2022-11-20T09:25:26.850Z,1.60
2022-11-20T09:26:28.627Z,1.63
2022-11-20T09:27:30.439Z,3.03
2022-11-20T09:28:32.911Z,1.98
2022-11-20T09:29:34.901Z,1.47
2022-11-20T09:30:37.313Z,2.00
2022-11-20T09:31:39.327Z,1.57
2022-11-20T09:32:41.842Z,1.37
2022-11-20T09:33:44.048Z,1.20
2022-11-20T09:34:46.035Z,1.63
2022-11-20T09:35:47.986Z,2.27
2022-11-20T09:36:49.752Z,1.50
2022-11-20T09:37:51.931Z,1.70
2022-11-20T09:38:53.973Z,1.30
2022-11-20T09:39:55.749Z,1.30
2022-11-20T09:41:03.905Z,1.83
2022-11-20T09:42:43.575Z,1.60
2022-11-20T09:44:01.230Z,3.37
2022-11-20T09:45:11.623Z,1.37
2022-11-20T09:46:29.176Z,2.17
2022-11-20T09:47:36.517Z,8.43
2022-11-20T09:48:47.302Z,4.47
2022-11-20T09:50:09.338Z,3.30
2022-11-20T09:51:35.926Z,2.40
2022-11-20T09:53:06.894Z,1.90
2022-11-20T09:54:14.373Z,1.43
2022-11-20T09:55:17.347Z,1.60
2022-11-20T09:56:22.468Z,1.58
2022-11-20T09:57:36.679Z,1.50
2022-11-20T09:58:47.786Z,2.40
2022-11-20T09:59:57.272Z,1.57
2022-11-20T10:01:16.286Z,3.17
2022-11-20T10:02:23.951Z,1.20
2022-11-20T10:03:40.302Z,3.07
2022-11-20T10:04:49.427Z,1.60
2022-11-20T10:05:55.900Z,1.10
2022-11-20T10:08:26.837Z,1.20
2022-11-20T10:09:35.544Z,1.60
2022-11-20T10:11:05.665Z,1.40
2022-11-20T10:12:14.322Z,1.57
2022-11-20T10:13:39.859Z,0.97
2022-11-20T10:15:04.961Z,0.90
2022-11-20T10:16:31.137Z,1.03
2022-11-20T10:18:00.167Z,1.47
2022-11-20T10:19:35.929Z,0.73
2022-11-20T10:21:04.197Z,0.90
2022-11-20T10:22:38.388Z,0.90
2022-11-20T10:23:53.439Z,0.90
2022-11-20T10:25:47.729Z,0.97
2022-11-20T10:27:15.038Z,1.00
2022-11-20T10:28:29.715Z,1.00
2022-11-20T10:29:35.320Z,1.13
2022-11-20T10:30:44.234Z,2.23
2022-11-20T10:31:51.852Z,0.80
2022-11-20T10:32:57.396Z,2.90
2022-11-20T10:34:12.481Z,2.90
2022-11-20T10:35:18.171Z,1.47
2022-11-20T10:36:39.732Z,1.70
2022-11-20T10:37:45.760Z,0.80
2022-11-20T10:38:59.629Z,1.00
2022-11-20T10:40:06.798Z,1.00
2022-11-20T10:41:27.095Z,1.13
2022-11-20T10:42:47.569Z,1.10
2022-11-20T10:43:53.106Z,1.43
2022-11-20T10:45:06.300Z,1.60
2022-11-20T10:46:33.658Z,1.20
2022-11-20T10:47:35.661Z,1.05
2022-11-20T10:48:39.480Z,3.43
2022-11-20T10:49:43.365Z,1.53
2022-11-20T10:51:13.482Z,1.33
2022-11-20T10:52:26.515Z,1.02
2022-11-20T10:54:01.441Z,0.93
2022-11-20T10:55:17.836Z,1.60
2022-11-20T10:56:50.094Z,2.47
2022-11-20T10:58:13.506Z,1.90
2022-11-20T10:59:39.391Z,1.53
2022-11-20T11:00:41.715Z,1.30
2022-11-20T11:01:43.903Z,0.90
2022-11-20T11:02:54.176Z,3.73
2022-11-20T11:03:57.285Z,2.20
2022-11-20T11:05:08.149Z,1.30
2022-11-20T11:06:44.951Z,4.00
2022-11-20T11:07:50.268Z,2.43
2022-11-20T11:08:54.271Z,1.80
2022-11-20T11:09:57.492Z,1.00
2022-11-20T11:11:04.092Z,2.80
2022-11-20T11:12:10.626Z,3.00
2022-11-20T11:13:30.450Z,1.70
2022-11-20T11:14:43.462Z,1.20
2022-11-20T11:15:45.247Z,1.50
2022-11-20T11:16:58.556Z,0.90
2022-11-20T11:18:00.298Z,1.33
2022-11-20T11:19:07.215Z,1.63
2022-11-20T11:20:11.562Z,2.13
2022-11-20T11:21:13.638Z,3.97
2022-11-20T11:22:19.015Z,2.27
2022-11-20T11:23:35.033Z,1.43
2022-11-20T11:24:44.217Z,2.00
2022-11-20T11:25:59.574Z,1.58
2022-11-20T11:27:16.464Z,3.20
2022-11-20T11:28:19.158Z,1.53
2022-11-20T11:29:21.339Z,1.30
2022-11-20T11:30:25.078Z,1.27
2022-11-20T11:31:31.962Z,1.55
2022-11-20T11:32:33.790Z,1.20
2022-11-20T11:33:35.652Z,3.00
2022-11-20T11:34:37.490Z,3.77
2022-11-20T11:35:51.879Z,1.60
2022-11-20T11:36:58.225Z,1.33
2022-11-20T11:38:12.400Z,3.67
2022-11-20T11:39:17.345Z,1.67
2022-11-20T11:40:24.990Z,1.70
2022-11-20T11:41:32.735Z,1.20
2022-11-20T11:42:34.805Z,1.63
2022-11-20T11:43:57.293Z,1.50
2022-11-20T11:45:08.355Z,1.50
2022-11-20T11:46:31.643Z,1.88
2022-11-20T11:47:42.765Z,1.52
2022-11-20T11:49:03.162Z,1.50
2022-11-20T11:50:10.508Z,2.17
2022-11-20T11:51:12.242Z,1.43
2022-11-20T11:52:18.869Z,1.90
2022-11-20T11:53:24.672Z,1.88
2022-11-20T11:54:33.317Z,1.60
2022-11-20T11:56:12.375Z,2.37
2022-11-20T11:57:21.954Z,1.87
2022-11-20T11:58:45.897Z,3.27
2022-11-20T11:59:56.187Z,2.63
2022-11-20T12:01:28.949Z,2.67
2022-11-20T12:02:35.480Z,1.42
2022-11-20T12:03:40.148Z,1.80
2022-11-20T12:04:51.851Z,3.28
2022-11-20T12:06:02.300Z,3.30
2022-11-20T12:07:48.247Z,6.03
2022-11-20T12:08:56.131Z,5.80
2022-11-20T12:09:59.571Z,2.83
2022-11-20T12:11:39.842Z,1.40
2022-11-20T12:12:45.795Z,5.53
2022-11-20T12:14:10.158Z,2.67
2022-11-20T12:15:16.961Z,1.60
2022-11-20T12:16:21.287Z,2.00
2022-11-20T12:17:23.064Z,2.83
2022-11-20T12:18:25.102Z,2.28
2022-11-20T12:19:30.225Z,3.83
2022-11-20T12:20:42.862Z,2.60
2022-11-20T12:22:04.969Z,3.17
2022-11-20T12:23:23.676Z,3.60
2022-11-20T12:24:40.546Z,2.50
2022-11-20T12:25:44.966Z,2.20
2022-11-20T12:27:02.918Z,1.63
2022-11-20T12:28:04.626Z,2.97
2022-11-20T12:29:18.463Z,2.67
2022-11-20T12:30:22.513Z,1.60
2022-11-20T12:31:40.334Z,1.80
2022-11-20T12:33:23.574Z,2.60
2022-11-20T12:34:44.915Z,2.57
2022-11-20T12:36:03.092Z,1.80
2022-11-20T12:37:34.181Z,2.37
2022-11-20T12:38:42.143Z,2.47
2022-11-20T12:39:48.110Z,2.37
2022-11-20T12:41:05.124Z,2.40
2022-11-20T12:42:34.521Z,2.27
2022-11-20T12:44:09.347Z,2.20
2022-11-20T12:45:14.287Z,1.43
2022-11-20T12:46:33.625Z,1.90
2022-11-20T12:47:57.101Z,1.37
2022-11-20T12:49:20.860Z,2.33
2022-11-20T12:51:14.579Z,5.28
2022-11-20T12:52:23.288Z,1.30
2022-11-20T12:54:02.716Z,3.13
2022-11-20T12:55:29.991Z,1.60
2022-11-20T12:56:44.869Z,2.37
2022-11-20T12:58:28.467Z,0.93
2022-11-20T12:59:59.164Z,3.60
2022-11-20T13:01:36.923Z,2.63
2022-11-20T13:02:57.430Z,2.13
2022-11-20T13:04:10.523Z,1.67
2022-11-20T13:05:20.685Z,1.63
2022-11-20T13:06:22.836Z,3.10
2022-11-20T13:07:27.647Z,4.30
2022-11-20T13:08:39.588Z,2.37
2022-11-20T13:09:49.483Z,1.83
2022-11-20T13:11:11.023Z,1.60
2022-11-20T13:12:15.833Z,2.27
2022-11-20T13:13:40.933Z,0.80
2022-11-20T13:14:57.184Z,1.50
2022-11-20T13:16:14.494Z,2.10
2022-11-20T13:17:38.200Z,9.23
2022-11-20T13:18:43.619Z,3.17
2022-11-20T13:19:55.698Z,2.20
2022-11-20T13:20:57.631Z,1.93
2022-11-20T13:21:59.470Z,2.63
2022-11-20T13:23:01.358Z,4.13
2022-11-20T13:24:08.418Z,3.67
2022-11-20T13:25:30.155Z,1.90
2022-11-20T13:26:32.096Z,1.10
2022-11-20T13:27:47.747Z,1.47
2022-11-20T13:29:03.302Z,2.80
2022-11-20T13:30:21.145Z,1.92
2022-11-20T13:31:32.501Z,2.13
2022-11-20T13:32:34.612Z,2.35
2022-11-20T13:33:39.111Z,3.77
2022-11-20T13:34:52.029Z,2.60
2022-11-20T13:36:00.685Z,2.10
2022-11-20T13:37:04.901Z,1.87
2022-11-20T13:38:06.853Z,1.63
2022-11-20T13:39:10.218Z,2.67
2022-11-20T13:40:12.108Z,2.03
2022-11-20T13:41:28.897Z,1.77
2022-11-20T13:42:30.918Z,1.87
2022-11-20T13:43:42.632Z,1.73
2022-11-20T13:44:51.660Z,1.67
2022-11-20T13:46:25.324Z,0.67
2022-11-20T13:47:28.919Z,1.58
2022-11-20T13:48:40.769Z,1.90
2022-11-20T13:49:46.516Z,2.87
2022-11-20T13:51:13.781Z,3.67
2022-11-20T13:52:27.978Z,2.10
2022-11-20T13:53:39.209Z,3.30
2022-11-20T13:54:55.999Z,4.33
2022-11-20T13:55:57.908Z,1.50
2022-11-20T13:57:20.949Z,3.00
2022-11-20T14:00:28.408Z,2.30
2022-11-20T14:01:35.914Z,4.63
2022-11-20T14:02:42.061Z,1.77
2022-11-20T14:04:05.274Z,3.83
2022-11-20T14:06:22.450Z,4.53
2022-11-20T14:08:03.806Z,1.57
2022-11-20T14:09:09.098Z,1.27
2022-11-20T14:10:32.012Z,3.67
2022-11-20T14:12:11.663Z,2.93
2022-11-20T14:13:21.430Z,2.30
2022-11-20T14:14:26.257Z,1.53
2022-11-20T14:15:31.743Z,2.63
2022-11-20T14:16:35.968Z,2.30
2022-11-20T14:17:39.155Z,1.53
2022-11-20T14:18:40.909Z,3.13
2022-11-20T14:19:44.282Z,3.97
2022-11-20T14:20:46.653Z,2.73
2022-11-20T14:21:55.328Z,2.90
2022-11-20T14:22:57.466Z,2.33
2022-11-20T14:24:06.702Z,1.88
2022-11-20T14:25:27.950Z,1.53
2022-11-20T14:26:29.860Z,1.90
2022-11-20T14:27:39.339Z,2.05
2022-11-20T14:28:41.261Z,2.80
2022-11-20T14:29:45.585Z,4.67
2022-11-20T14:30:49.515Z,1.37
2022-11-20T14:31:56.683Z,1.67
2022-11-20T14:33:04.388Z,3.03
2022-11-20T14:34:06.261Z,2.17
2022-11-20T14:35:21.475Z,1.50
2022-11-20T14:36:26.302Z,1.33
2022-11-20T14:37:32.430Z,3.63
2022-11-20T14:38:34.233Z,2.50
2022-11-20T14:39:37.731Z,3.17
2022-11-20T14:40:39.575Z,1.80
2022-11-20T14:41:52.963Z,1.40
2022-11-20T14:42:54.949Z,2.30
2022-11-20T14:44:01.489Z,3.38
2022-11-20T14:45:04.068Z,2.13
2022-11-20T14:46:09.245Z,2.80
2022-11-20T14:47:16.374Z,1.37
2022-11-20T14:48:18.309Z,1.13